createdAt,value
2023-02-22T00:02:13.085Z,8.00
2023-02-22T00:05:20.044Z,7.90
2023-02-22T00:08:23.898Z,7.79
2023-02-22T00:11:26.675Z,7.78
2023-02-22T00:14:29.120Z,7.68
2023-02-22T00:17:31.785Z,7.67
2023-02-22T00:20:34.908Z,7.58
2023-02-22T00:23:39.867Z,7.53
2023-02-22T00:26:42.446Z,7.51
2023-02-22T00:29:46.354Z,7.55
2023-02-22T00:32:49.660Z,7.56
2023-02-22T00:35:52.351Z,7.68
2023-02-22T00:38:55.675Z,7.74
2023-02-22T00:41:58.429Z,7.57
2023-02-22T00:45:00.796Z,7.41
2023-02-22T00:48:04.628Z,7.19
2023-02-22T00:51:07.062Z,7.19
2023-02-22T00:54:10.650Z,7.07
2023-02-22T00:57:13.205Z,7.02
2023-02-22T01:00:18.863Z,6.88
2023-02-22T01:03:22.173Z,6.74
2023-02-22T01:06:25.186Z,6.68
2023-02-22T01:09:27.888Z,6.63
2023-02-22T01:12:30.483Z,6.80
2023-02-22T01:15:32.870Z,7.06
2023-02-22T01:18:36.205Z,7.34
2023-02-22T01:21:39.938Z,7.37
2023-02-22T01:24:42.746Z,7.43
2023-02-22T01:27:45.115Z,7.52
2023-02-22T01:30:48.387Z,7.49
2023-02-22T01:33:51.409Z,7.56
2023-02-22T01:36:54.076Z,7.58
2023-02-22T01:39:56.434Z,7.53
2023-02-22T01:43:01.217Z,7.47
2023-02-22T01:46:03.607Z,7.57
2023-02-22T01:49:07.310Z,7.58
2023-02-22T01:52:12.008Z,7.63
2023-02-22T01:55:17.126Z,7.62
2023-02-22T01:58:21.839Z,7.57
2023-02-22T02:01:25.631Z,7.61
2023-02-22T02:04:28.369Z,7.60
2023-02-22T02:07:30.724Z,7.54
2023-02-22T02:10:34.996Z,7.57
2023-02-22T02:13:38.547Z,7.57
2023-02-22T02:16:51.919Z,7.68
2023-02-22T02:20:07.267Z,7.81
2023-02-22T02:23:11.153Z,7.88
2023-02-22T02:26:19.621Z,7.86
2023-02-22T02:29:25.518Z,7.80
2023-02-22T02:32:33.211Z,7.76
2023-02-22T02:35:43.676Z,7.75
2023-02-22T02:38:50.941Z,7.56
2023-02-22T02:41:54.582Z,7.41
2023-02-22T02:45:12.733Z,7.45
2023-02-22T02:48:17.722Z,7.48
2023-02-22T02:51:21.810Z,7.47
2023-02-22T02:54:25.881Z,7.50
2023-02-22T02:57:28.276Z,7.55
2023-02-22T03:00:39.213Z,7.70
2023-02-22T03:03:47.790Z,7.54
2023-02-22T03:06:56.341Z,7.48
2023-02-22T03:10:18.866Z,7.55
2023-02-22T03:13:45.154Z,7.51
2023-02-22T03:17:20.254Z,7.38
2023-02-22T03:20:31.519Z,7.44
2023-02-22T03:23:34.426Z,7.54
2023-02-22T03:26:59.613Z,7.61
2023-02-22T03:30:03.747Z,7.68
2023-02-22T03:33:40.642Z,7.75
2023-02-22T03:36:45.416Z,7.75
2023-02-22T03:39:51.040Z,7.97
2023-02-22T03:42:59.220Z,8.08
2023-02-22T03:46:06.220Z,8.11
2023-02-22T03:49:20.388Z,8.16
2023-02-22T03:52:23.593Z,8.17
2023-02-22T03:55:28.838Z,8.18
2023-02-22T03:58:32.029Z,8.26
2023-02-22T04:01:34.594Z,8.29
2023-02-22T04:04:37.299Z,8.23
2023-02-22T04:07:40.101Z,8.20
2023-02-22T04:10:43.236Z,8.16
2023-02-22T04:13:45.664Z,8.12
2023-02-22T04:16:48.408Z,8.14
2023-02-22T04:19:51.450Z,8.16
2023-02-22T04:22:55.400Z,8.11
2023-02-22T04:25:57.804Z,8.00
2023-02-22T04:29:00.723Z,7.84
2023-02-22T04:32:04.000Z,7.75
2023-02-22T04:35:07.577Z,7.56
2023-02-22T04:38:10.414Z,7.51
2023-02-22T04:41:13.953Z,7.49
2023-02-22T04:44:17.292Z,7.50
2023-02-22T04:47:20.403Z,7.38
2023-02-22T04:50:23.402Z,7.32
2023-02-22T04:53:26.346Z,7.38
2023-02-22T04:56:28.918Z,7.35
2023-02-22T04:59:33.001Z,7.26
2023-02-22T05:02:36.012Z,7.22
2023-02-22T05:05:38.740Z,7.23
2023-02-22T05:08:41.194Z,7.16
2023-02-22T05:11:43.884Z,7.34
2023-02-22T05:14:46.223Z,7.31
2023-02-22T05:17:49.053Z,7.33
2023-02-22T05:20:52.580Z,7.27
2023-02-22T05:23:55.281Z,7.25
2023-02-22T05:26:57.790Z,7.14
2023-02-22T05:30:00.410Z,7.03
2023-02-22T05:33:02.934Z,6.97
2023-02-22T05:36:07.764Z,6.85
2023-02-22T05:39:10.252Z,6.83
2023-02-22T05:42:12.913Z,6.90
2023-02-22T05:45:16.410Z,7.03
2023-02-22T05:48:20.221Z,7.04
2023-02-22T05:51:24.238Z,7.02
2023-02-22T05:54:27.034Z,6.94
2023-02-22T05:57:29.371Z,7.06
2023-02-22T06:00:33.234Z,7.08
2023-02-22T06:03:35.963Z,7.11
2023-02-22T06:06:38.363Z,7.23
2023-02-22T06:09:41.354Z,7.37
2023-02-22T06:12:44.428Z,7.47
2023-02-22T06:15:47.434Z,7.52
2023-02-22T06:18:50.338Z,7.61
2023-02-22T06:21:59.961Z,7.61
2023-02-22T06:25:03.490Z,7.70
2023-02-22T06:28:06.210Z,7.78
2023-02-22T06:31:08.645Z,8.00
2023-02-22T06:34:11.556Z,8.24
2023-02-22T06:37:14.053Z,8.51
2023-02-22T06:40:16.991Z,8.76
2023-02-22T06:43:19.465Z,8.85
2023-02-22T06:46:22.118Z,9.00
2023-02-22T06:49:24.511Z,9.12
2023-02-22T06:52:27.146Z,9.48
2023-02-22T06:55:30.683Z,9.41
2023-02-22T06:58:33.345Z,9.49
2023-02-22T07:01:36.495Z,9.81
2023-02-22T07:04:41.624Z,10.08
2023-02-22T07:07:45.420Z,10.50
2023-02-22T07:10:50.472Z,11.56
2023-02-22T07:13:52.821Z,12.44
2023-02-22T07:16:55.446Z,13.41
2023-02-22T07:19:57.871Z,15.19
2023-02-22T07:23:01.304Z,17.48
2023-02-22T07:26:05.309Z,17.90
2023-02-22T07:29:08.173Z,16.78
2023-02-22T07:32:10.984Z,15.88
2023-02-22T07:35:18.398Z,15.79
2023-02-22T07:38:21.237Z,15.77
2023-02-22T07:41:23.945Z,15.05
2023-02-22T07:44:26.813Z,16.11
2023-02-22T07:47:32.075Z,15.82
2023-02-22T07:50:35.162Z,14.78
2023-02-22T07:53:37.784Z,14.39
2023-02-22T07:56:47.210Z,15.12
2023-02-22T07:59:50.200Z,15.16
2023-02-22T08:02:52.962Z,14.71
2023-02-22T08:05:56.682Z,15.58
2023-02-22T08:08:59.353Z,16.16
2023-02-22T08:12:02.081Z,15.75
2023-02-22T08:15:04.949Z,15.90
2023-02-22T08:18:09.157Z,14.92
2023-02-22T08:21:11.502Z,14.59
2023-02-22T08:24:14.169Z,15.41
2023-02-22T08:27:16.429Z,15.41
2023-02-22T08:30:23.317Z,14.14
2023-02-22T08:33:26.107Z,13.57
2023-02-22T08:36:29.588Z,13.24
2023-02-22T08:39:31.976Z,13.37
2023-02-22T08:42:34.594Z,13.18
2023-02-22T08:45:36.965Z,12.77
2023-02-22T08:48:39.648Z,13.25
2023-02-22T08:51:42.061Z,13.58
2023-02-22T08:54:45.649Z,13.80
2023-02-22T08:57:48.168Z,13.57
2023-02-22T09:00:50.897Z,13.82
2023-02-22T09:03:53.418Z,13.92
2023-02-22T09:06:56.145Z,13.94
2023-02-22T09:09:58.444Z,13.82
2023-02-22T09:13:01.546Z,14.23
2023-02-22T09:16:04.256Z,14.26
2023-02-22T09:19:10.203Z,14.10
2023-02-22T09:22:12.544Z,14.09
2023-02-22T09:25:17.390Z,13.98
2023-02-22T09:28:19.907Z,14.14
2023-02-22T09:31:24.290Z,14.05
2023-02-22T09:34:29.591Z,14.25
2023-02-22T09:37:32.661Z,14.39
2023-02-22T09:40:41.152Z,14.19
2023-02-22T09:43:52.062Z,14.82
2023-02-22T09:46:56.322Z,14.82
2023-02-22T09:49:59.086Z,14.82
2023-02-22T09:53:04.355Z,14.75
2023-02-22T09:56:11.840Z,14.52
2023-02-22T09:59:18.821Z,14.93
2023-02-22T10:02:30.057Z,15.30
2023-02-22T10:05:54.316Z,15.45
2023-02-22T10:08:59.420Z,15.81
2023-02-22T10:12:09.126Z,15.67
2023-02-22T10:15:30.540Z,15.53
2023-02-22T10:18:39.167Z,15.45
2023-02-22T10:21:53.663Z,15.81
2023-02-22T10:25:05.251Z,15.23
2023-02-22T10:28:16.928Z,15.13
2023-02-22T10:31:23.288Z,15.62
2023-02-22T10:34:28.207Z,15.68
2023-02-22T10:37:34.502Z,15.79
2023-02-22T10:40:37.006Z,15.95
2023-02-22T10:43:43.778Z,15.94
2023-02-22T10:46:47.394Z,15.58
2023-02-22T10:49:51.986Z,15.46
2023-02-22T10:52:55.206Z,15.72
2023-02-22T10:56:07.591Z,15.52
2023-02-22T10:59:10.093Z,15.41
2023-02-22T11:02:16.064Z,15.47
2023-02-22T11:05:29.779Z,14.79
2023-02-22T11:08:33.255Z,14.80
2023-02-22T11:11:36.273Z,15.00
2023-02-22T11:14:39.183Z,14.45
2023-02-22T11:17:41.595Z,14.92
2023-02-22T11:20:44.232Z,14.93
2023-02-22T11:23:46.738Z,15.32
2023-02-22T11:26:50.700Z,15.44
2023-02-22T11:29:53.177Z,15.40
2023-02-22T11:32:56.026Z,14.75
2023-02-22T11:36:04.838Z,14.94
2023-02-22T11:39:28.360Z,14.94
2023-02-22T11:42:30.741Z,15.00
2023-02-22T11:45:33.399Z,14.74
2023-02-22T11:48:39.141Z,14.86
2023-02-22T11:51:56.540Z,15.06
2023-02-22T11:55:06.312Z,14.85
2023-02-22T11:58:08.945Z,14.39
2023-02-22T12:01:20.986Z,14.04
2023-02-22T12:04:23.864Z,14.13
2023-02-22T12:07:32.832Z,14.14
2023-02-22T12:10:50.033Z,14.05
2023-02-22T12:14:11.503Z,13.96
2023-02-22T12:17:23.526Z,14.15
2023-02-22T12:20:30.947Z,14.27
2023-02-22T12:23:41.149Z,14.05
2023-02-22T12:26:50.669Z,14.57
2023-02-22T12:30:19.849Z,14.83
2023-02-22T12:33:25.297Z,14.58
2023-02-22T12:36:48.202Z,14.56
2023-02-22T12:40:13.882Z,14.69
2023-02-22T12:43:36.867Z,14.76
2023-02-22T12:46:42.206Z,14.93
2023-02-22T12:49:51.425Z,15.07
2023-02-22T12:53:02.838Z,15.16
2023-02-22T12:56:16.022Z,14.88
2023-02-22T12:59:38.142Z,14.83
2023-02-22T13:03:01.595Z,14.82
2023-02-22T13:06:22.947Z,14.45
2023-02-22T13:09:28.445Z,14.61
2023-02-22T13:12:46.257Z,14.61
2023-02-22T13:16:08.207Z,14.66
2023-02-22T13:19:29.491Z,14.35
2023-02-22T13:22:32.565Z,14.27
2023-02-22T13:25:40.713Z,14.48
2023-02-22T13:28:46.555Z,14.49
2023-02-22T13:32:09.294Z,14.05
2023-02-22T13:35:21.470Z,14.15
2023-02-22T13:38:39.317Z,14.20
2023-02-22T13:41:55.248Z,14.20
2023-02-22T13:45:03.249Z,14.16
2023-02-22T13:48:28.270Z,14.03
2023-02-22T13:51:50.684Z,13.73
2023-02-22T13:54:55.830Z,13.77
2023-02-22T13:58:16.118Z,13.81
2023-02-22T14:01:38.888Z,13.80
2023-02-22T14:04:42.034Z,13.83
2023-02-22T14:07:48.345Z,13.78
2023-02-22T14:10:57.886Z,13.84
2023-02-22T14:14:03.548Z,13.85
2023-02-22T14:17:16.879Z,13.80
2023-02-22T14:20:21.480Z,13.78
2023-02-22T14:23:29.961Z,13.75
2023-02-22T14:26:34.178Z,13.42
2023-02-22T14:29:37.030Z,13.49
2023-02-22T14:32:39.608Z,13.35
2023-02-22T14:35:49.888Z,13.13
2023-02-22T14:38:54.501Z,13.19
2023-02-22T14:42:01.511Z,13.11
2023-02-22T14:45:10.096Z,13.07
2023-02-22T14:48:14.321Z,13.02
2023-02-22T14:51:21.954Z,12.92
2023-02-22T14:54:31.920Z,13.01
2023-02-22T14:57:38.979Z,12.94
2023-02-22T15:00:43.505Z,13.03
2023-02-22T15:03:49.740Z,12.93
2023-02-22T15:06:57.386Z,12.99
2023-02-22T15:10:07.181Z,12.88
2023-02-22T15:13:15.348Z,12.91
2023-02-22T15:16:18.061Z,12.93
2023-02-22T15:19:25.338Z,12.84
2023-02-22T15:22:33.037Z,12.78
2023-02-22T15:25:37.647Z,12.73
2023-02-22T15:28:41.411Z,12.71
2023-02-22T15:31:47.108Z,12.55
2023-02-22T15:34:50.442Z,12.48
2023-02-22T15:38:06.725Z,12.41
2023-02-22T15:41:20.612Z,12.27
2023-02-22T15:44:25.944Z,12.25
2023-02-22T15:47:29.503Z,12.37
2023-02-22T15:50:35.047Z,12.25
2023-02-22T15:53:47.941Z,12.01
2023-02-22T15:56:55.631Z,11.92
2023-02-22T15:59:58.165Z,11.84
2023-02-22T16:03:00.844Z,11.75
2023-02-22T16:06:08.692Z,11.61
2023-02-22T16:09:12.867Z,11.66
2023-02-22T16:12:22.011Z,11.57
2023-02-22T16:15:24.362Z,11.63
2023-02-22T16:18:31.327Z,11.43
2023-02-22T16:21:49.728Z,11.27
2023-02-22T16:24:52.797Z,11.21
2023-02-22T16:28:06.089Z,11.08
2023-02-22T16:31:09.238Z,11.13
2023-02-22T16:34:14.589Z,11.10
2023-02-22T16:37:24.438Z,11.04
2023-02-22T16:40:32.311Z,11.10
2023-02-22T16:43:35.119Z,10.99
2023-02-22T16:46:37.988Z,10.90
2023-02-22T16:49:40.760Z,10.84
2023-02-22T16:52:48.669Z,10.80
2023-02-22T16:55:57.574Z,10.71
2023-02-22T16:59:06.379Z,10.89
2023-02-22T17:02:14.309Z,10.80
2023-02-22T17:05:16.872Z,10.69
2023-02-22T17:08:19.597Z,10.65
2023-02-22T17:11:22.398Z,10.59
2023-02-22T17:14:27.785Z,10.46
2023-02-22T17:17:32.710Z,10.34
2023-02-22T17:20:35.792Z,10.21
2023-02-22T17:23:38.157Z,10.12
2023-02-22T17:26:41.391Z,10.01
2023-02-22T17:29:45.211Z,9.88
2023-02-22T17:32:51.430Z,9.74
2023-02-22T17:35:55.109Z,9.64
2023-02-22T17:38:59.637Z,9.56
2023-02-22T17:42:02.344Z,9.63
2023-02-22T17:45:05.561Z,9.57
2023-02-22T17:48:08.977Z,9.62
2023-02-22T17:51:12.966Z,9.66
2023-02-22T17:54:18.161Z,9.54
2023-02-22T17:57:25.216Z,9.41
2023-02-22T18:00:35.624Z,9.29
2023-02-22T18:03:40.130Z,9.24
2023-02-22T18:06:42.796Z,9.13
2023-02-22T18:09:46.371Z,9.04
2023-02-22T18:12:49.101Z,9.04
2023-02-22T18:15:53.084Z,9.01
2023-02-22T18:18:56.318Z,9.01
2023-02-22T18:22:00.292Z,8.88
2023-02-22T18:25:02.886Z,8.80
2023-02-22T18:28:06.858Z,8.87
2023-02-22T18:31:14.744Z,8.78
2023-02-22T18:34:17.608Z,8.69
2023-02-22T18:37:20.521Z,8.67
2023-02-22T18:40:25.865Z,8.65
2023-02-22T18:43:29.500Z,8.75
2023-02-22T18:46:32.605Z,8.56
2023-02-22T18:49:35.814Z,8.35
2023-02-22T18:52:45.721Z,8.20
2023-02-22T18:55:48.871Z,8.04
2023-02-22T18:58:55.336Z,8.17
2023-02-22T19:01:58.452Z,8.08
2023-02-22T19:05:02.616Z,8.06
2023-02-22T19:08:11.180Z,7.93
2023-02-22T19:11:21.993Z,7.87
2023-02-22T19:14:24.445Z,7.81
2023-02-22T19:17:28.626Z,7.90
2023-02-22T19:20:33.271Z,7.96
2023-02-22T19:23:38.090Z,7.91
2023-02-22T19:26:50.230Z,7.95
2023-02-22T19:29:53.190Z,7.96
2023-02-22T19:32:55.926Z,8.05
2023-02-22T19:36:02.216Z,8.08
2023-02-22T19:39:04.993Z,8.05
2023-02-22T19:42:09.676Z,8.09
2023-02-22T19:45:12.349Z,8.22
2023-02-22T19:48:15.369Z,8.27
2023-02-22T19:51:19.092Z,8.42
2023-02-22T19:54:23.957Z,8.42
2023-02-22T19:57:29.516Z,8.39
2023-02-22T20:00:35.679Z,8.54
2023-02-22T20:03:38.879Z,8.46
2023-02-22T20:06:42.554Z,8.53
2023-02-22T20:09:45.557Z,8.52
2023-02-22T20:12:49.771Z,8.52
2023-02-22T20:15:53.460Z,8.61
2023-02-22T20:18:56.088Z,8.54
2023-02-22T20:22:00.354Z,8.53
2023-02-22T20:25:03.070Z,8.58
2023-02-22T20:28:07.756Z,8.61
2023-02-22T20:31:17.137Z,8.56
2023-02-22T20:34:20.257Z,8.59
2023-02-22T20:37:23.137Z,8.59
2023-02-22T20:40:27.279Z,8.55
2023-02-22T20:43:29.954Z,8.44
2023-02-22T20:46:33.298Z,8.29
2023-02-22T20:49:36.141Z,8.23
2023-02-22T20:52:39.870Z,8.24
2023-02-22T20:55:52.059Z,8.26
2023-02-22T20:58:59.554Z,8.21
2023-02-22T21:02:02.403Z,8.15
2023-02-22T21:05:06.533Z,8.05
2023-02-22T21:08:09.254Z,8.02
2023-02-22T21:11:13.564Z,8.04
2023-02-22T21:14:18.899Z,8.17
2023-02-22T21:17:28.697Z,8.07
2023-02-22T21:20:31.435Z,8.04
2023-02-22T21:23:34.312Z,8.08
2023-02-22T21:26:36.914Z,8.14
2023-02-22T21:29:39.796Z,8.03
2023-02-22T21:32:42.499Z,8.12
2023-02-22T21:35:47.201Z,8.08
2023-02-22T21:38:53.390Z,8.14
2023-02-22T21:42:00.296Z,8.07
2023-02-22T21:45:02.960Z,8.05
2023-02-22T21:48:06.282Z,8.07
2023-02-22T21:51:13.866Z,8.01
2023-02-22T21:54:16.898Z,7.94
2023-02-22T21:57:19.384Z,7.89
2023-02-22T22:00:29.273Z,7.83
2023-02-22T22:03:32.339Z,7.81
2023-02-22T22:06:35.682Z,7.86
2023-02-22T22:09:41.340Z,7.93
2023-02-22T22:12:46.220Z,7.91
2023-02-22T22:15:49.412Z,7.83
2023-02-22T22:18:51.742Z,7.78
2023-02-22T22:21:55.182Z,7.70
2023-02-22T22:24:57.760Z,7.71
2023-02-22T22:28:01.107Z,7.68
2023-02-22T22:31:04.649Z,7.66
2023-02-22T22:34:07.297Z,7.63
2023-02-22T22:37:09.680Z,7.69
2023-02-22T22:40:15.748Z,7.63
2023-02-22T22:43:18.464Z,7.67
2023-02-22T22:46:21.565Z,7.66
2023-02-22T22:49:25.560Z,7.57
2023-02-22T22:52:31.300Z,7.52
2023-02-22T22:55:33.932Z,7.48
2023-02-22T22:58:37.271Z,7.61
2023-02-22T23:01:41.035Z,7.52
2023-02-22T23:04:43.637Z,7.42
2023-02-22T23:07:45.955Z,7.39
2023-02-22T23:10:48.575Z,7.33
2023-02-22T23:13:50.897Z,7.28
2023-02-22T23:16:59.826Z,7.27
2023-02-22T23:20:02.239Z,7.40
2023-02-22T23:23:06.117Z,7.36
2023-02-22T23:26:18.242Z,7.22
2023-02-22T23:29:22.818Z,7.14
2023-02-22T23:32:26.824Z,7.15
2023-02-22T23:35:29.465Z,7.14
2023-02-22T23:38:32.001Z,7.10
2023-02-22T23:41:36.439Z,7.06
2023-02-22T23:44:40.418Z,7.06
2023-02-22T23:47:43.916Z,7.12
2023-02-22T23:50:47.395Z,7.09
2023-02-22T23:53:50.106Z,7.06
2023-02-22T23:56:58.414Z,7.17
